createdAt,value
2022-10-19T00:01:32.326Z,100066.59
2022-10-19T00:06:40.821Z,100068.16
2022-10-19T00:11:49.905Z,100071.48
2022-10-19T00:16:58.529Z,100077.09
2022-10-19T00:22:08.122Z,100081.77
2022-10-19T00:27:16.826Z,100072.27
2022-10-19T00:32:24.809Z,100075.52
2022-10-19T00:37:33.040Z,100075.05
2022-10-19T00:42:40.093Z,100065.36
2022-10-19T00:47:49.223Z,100062.48
2022-10-19T00:52:57.448Z,100056.79
2022-10-19T00:58:06.703Z,100053.05
2022-10-19T01:03:16.029Z,100058.90
2022-10-19T01:08:23.971Z,100056.23
2022-10-19T01:13:46.770Z,100058.13
2022-10-19T01:19:01.347Z,100054.35
2022-10-19T01:24:52.110Z,100051.42
2022-10-19T01:30:07.436Z,100041.27
2022-10-19T01:35:23.204Z,100041.89
2022-10-19T01:40:34.406Z,100030.80
2022-10-19T01:45:48.342Z,100022.10
2022-10-19T01:51:02.327Z,100013.27
2022-10-19T01:56:13.836Z,100009.92
2022-10-19T02:01:26.681Z,100005.20
2022-10-19T02:06:34.875Z,99997.14
2022-10-19T02:11:44.175Z,100001.05
2022-10-19T02:17:03.432Z,99999.34
2022-10-19T02:22:11.804Z,100002.22
2022-10-19T02:27:20.597Z,100002.08
2022-10-19T02:32:29.604Z,99999.91
2022-10-19T02:37:37.705Z,100002.23
2022-10-19T02:42:50.022Z,99994.67
2022-10-19T02:48:01.739Z,99991.48
2022-10-19T02:53:09.737Z,99986.54
2022-10-19T02:58:17.718Z,99983.00
2022-10-19T03:03:25.515Z,99984.35
2022-10-19T03:08:33.547Z,99982.08
2022-10-19T03:13:42.680Z,99980.30
2022-10-19T03:18:51.914Z,99974.67
2022-10-19T03:24:01.187Z,99979.23
2022-10-19T03:29:09.273Z,99979.45
2022-10-19T03:34:17.147Z,99974.05
2022-10-19T03:39:25.201Z,99971.38
2022-10-19T03:44:32.985Z,99970.80
2022-10-19T03:49:40.389Z,99973.77
2022-10-19T03:54:51.753Z,99973.38
2022-10-19T03:59:59.611Z,99974.79
2022-10-19T04:05:08.752Z,99965.95
2022-10-19T04:10:16.742Z,99963.07
2022-10-19T04:15:24.731Z,99958.32
2022-10-19T04:20:31.955Z,99959.52
2022-10-19T04:25:39.779Z,99957.15
2022-10-19T04:30:47.577Z,99953.63
2022-10-19T04:36:01.837Z,99948.31
2022-10-19T04:41:11.688Z,99949.14
2022-10-19T04:46:21.168Z,99946.38
2022-10-19T04:51:29.858Z,99949.78
2022-10-19T04:56:37.822Z,99948.17
2022-10-19T05:01:47.260Z,99944.16
2022-10-19T05:06:55.885Z,99945.56
2022-10-19T05:12:04.220Z,99947.41
2022-10-19T05:17:13.081Z,99941.67
2022-10-19T05:22:21.156Z,99943.63
2022-10-19T05:27:29.491Z,99946.34
2022-10-19T05:32:37.510Z,99959.00
2022-10-19T05:37:45.687Z,99963.11
2022-10-19T05:42:53.571Z,99973.45
2022-10-19T05:48:02.776Z,99978.50
2022-10-19T05:53:10.846Z,99987.95
2022-10-19T05:58:18.692Z,99996.17
2022-10-19T06:03:27.891Z,99997.20
2022-10-19T06:08:36.617Z,100008.62
2022-10-19T06:13:46.511Z,100011.31
2022-10-19T06:18:56.355Z,100013.40
2022-10-19T06:24:06.829Z,100022.77
2022-10-19T06:29:15.340Z,100027.69
2022-10-19T06:34:23.571Z,100032.23
2022-10-19T06:39:31.893Z,100022.89
2022-10-19T06:44:38.873Z,100024.65
2022-10-19T06:49:46.962Z,100035.70
2022-10-19T06:54:54.964Z,100042.27
2022-10-19T07:00:02.963Z,100047.51
2022-10-19T07:05:11.790Z,100052.16
2022-10-19T07:10:19.947Z,100056.91
2022-10-19T07:15:27.984Z,100070.27
2022-10-19T07:20:36.646Z,100078.72
2022-10-19T07:25:44.925Z,100085.59
2022-10-19T07:30:53.031Z,100092.09
2022-10-19T07:36:07.006Z,100094.56
2022-10-19T07:41:16.315Z,100098.95
2022-10-19T07:46:26.558Z,100100.96
2022-10-19T07:51:34.787Z,100114.94
2022-10-19T07:56:42.919Z,100123.92
2022-10-19T08:01:50.821Z,100131.48
2022-10-19T08:06:58.719Z,100138.42
2022-10-19T08:12:11.162Z,100143.77
2022-10-19T08:17:22.842Z,100146.80
2022-10-19T08:22:30.243Z,100164.51
2022-10-19T08:27:38.171Z,100182.08
2022-10-19T08:32:46.104Z,100193.55
2022-10-19T08:37:54.076Z,100204.84
2022-10-19T08:43:12.358Z,100211.35
2022-10-19T08:48:29.335Z,100216.86
2022-10-19T08:53:45.622Z,100226.40
2022-10-19T08:59:07.389Z,100236.09
2022-10-19T09:04:22.519Z,100242.25
2022-10-19T09:09:34.757Z,100254.86
2022-10-19T09:14:53.918Z,100253.76
2022-10-19T09:20:03.529Z,100251.95
2022-10-19T09:25:20.327Z,100256.58
2022-10-19T09:30:27.835Z,100264.68
2022-10-19T09:35:39.764Z,100255.73
2022-10-19T09:40:48.696Z,100255.01
2022-10-19T09:46:01.154Z,100257.61
2022-10-19T09:51:16.837Z,100264.30
2022-10-19T09:56:25.654Z,100265.55
2022-10-19T10:01:41.853Z,100261.73
2022-10-19T10:06:51.436Z,100260.98
2022-10-19T10:12:01.036Z,100265.92
2022-10-19T10:17:16.405Z,100261.07
2022-10-19T10:22:32.982Z,100269.45
2022-10-19T10:27:41.624Z,100286.38
2022-10-19T10:32:53.034Z,100295.37
2022-10-19T10:38:10.633Z,100294.05
2022-10-19T10:43:22.471Z,100287.80
2022-10-19T10:48:33.815Z,100288.84
2022-10-19T10:53:43.629Z,100288.65
2022-10-19T10:58:55.796Z,100290.45
2022-10-19T11:04:02.415Z,100290.27
2022-10-19T11:09:18.079Z,100291.95
2022-10-19T11:14:34.754Z,100289.20
2022-10-19T11:19:45.715Z,100297.08
2022-10-19T11:25:05.594Z,100299.14
2022-10-19T11:30:16.245Z,100292.27
2022-10-19T11:35:38.023Z,100306.08
2022-10-19T11:46:27.215Z,100325.98
2022-10-19T11:51:41.196Z,100327.64
2022-10-19T11:57:11.492Z,100336.52
2022-10-19T12:02:42.153Z,100341.29
2022-10-19T12:08:01.798Z,100338.47
2022-10-19T12:13:13.921Z,100372.67
2022-10-19T12:18:23.775Z,100371.95
2022-10-19T12:23:34.713Z,100370.46
2022-10-19T12:28:45.404Z,100360.23
2022-10-19T12:34:00.850Z,100358.81
2022-10-19T12:39:14.543Z,100359.01
2022-10-19T12:44:39.406Z,100355.89
2022-10-19T12:49:51.314Z,100357.23
2022-10-19T12:55:12.017Z,100365.60
2022-10-19T13:00:26.643Z,100376.94
2022-10-19T13:05:35.612Z,100388.23
2022-10-19T13:10:42.900Z,100376.87
2022-10-19T13:15:58.051Z,100388.77
2022-10-19T13:21:08.379Z,100392.41
2022-10-19T13:26:35.059Z,100393.14
2022-10-19T13:31:42.085Z,100396.52
2022-10-19T13:42:29.718Z,100412.78
2022-10-19T13:47:42.522Z,100419.77
2022-10-19T13:53:08.780Z,100422.06
2022-10-19T13:58:34.603Z,100423.44
2022-10-19T14:03:57.475Z,100430.52
2022-10-19T14:09:30.329Z,100437.84
2022-10-19T14:14:43.857Z,100435.56
2022-10-19T14:19:53.000Z,100433.39
2022-10-19T14:25:08.093Z,100438.80
2022-10-19T14:30:26.523Z,100442.44
2022-10-19T14:35:37.369Z,100443.10
2022-10-19T14:40:44.988Z,100445.35
2022-10-19T14:46:13.555Z,100448.84
2022-10-19T14:51:31.000Z,100451.42
2022-10-19T14:56:54.390Z,100459.65
2022-10-19T15:02:06.438Z,100467.32
2022-10-19T15:07:22.440Z,100473.36
2022-10-19T15:12:36.902Z,100476.75
2022-10-19T15:17:54.307Z,100481.20
2022-10-19T15:23:02.145Z,100484.11
2022-10-19T15:28:36.151Z,100486.59
2022-10-19T15:33:49.932Z,100486.31
2022-10-19T15:39:24.649Z,100493.73
2022-10-19T15:44:35.038Z,100498.54
2022-10-19T15:50:01.131Z,100497.88
2022-10-19T15:55:09.518Z,100508.61
2022-10-19T16:00:20.664Z,100510.06
2022-10-19T16:05:28.009Z,100521.17
2022-10-19T16:10:35.211Z,100525.84
2022-10-19T16:15:42.369Z,100534.35
2022-10-19T16:20:49.762Z,100535.21
2022-10-19T16:25:56.836Z,100540.94
2022-10-19T16:31:04.227Z,100549.65
2022-10-19T16:36:13.379Z,100545.94
2022-10-19T16:41:20.559Z,100543.02
2022-10-19T16:46:28.764Z,100545.83
2022-10-19T16:51:40.294Z,100546.75
2022-10-19T16:56:49.352Z,100544.94
2022-10-19T17:01:56.884Z,100550.96
2022-10-19T17:07:04.508Z,100559.15
2022-10-19T17:12:11.999Z,100564.15
2022-10-19T17:17:18.910Z,100571.30
2022-10-19T17:22:25.984Z,100578.58
2022-10-19T17:27:33.374Z,100590.61
2022-10-19T17:32:40.897Z,100595.45
2022-10-19T17:37:48.282Z,100595.02
2022-10-19T17:42:55.889Z,100601.63
2022-10-19T17:48:02.964Z,100610.48
2022-10-19T17:53:10.237Z,100618.83
2022-10-19T17:58:17.237Z,100628.20
2022-10-19T18:03:24.777Z,100634.66
2022-10-19T18:08:32.962Z,100642.62
2022-10-19T18:13:40.959Z,100652.34
2022-10-19T18:18:50.472Z,100650.88
2022-10-19T18:24:00.005Z,100646.95
2022-10-19T18:29:14.984Z,100649.64
2022-10-19T18:34:23.915Z,100657.05
2022-10-19T18:39:31.236Z,100657.09
2022-10-19T18:44:38.371Z,100655.39
2022-10-19T18:49:45.600Z,100661.22
2022-10-19T18:54:52.854Z,100663.73
2022-10-19T19:00:00.098Z,100668.85
2022-10-19T19:05:07.781Z,100674.68
2022-10-19T19:10:15.013Z,100672.99
2022-10-19T19:15:22.212Z,100679.89
2022-10-19T19:20:29.385Z,100683.81
2022-10-19T19:25:36.469Z,100687.70
2022-10-19T19:30:45.810Z,100693.38
2022-10-19T19:35:52.951Z,100693.96
2022-10-19T19:41:00.190Z,100700.66
2022-10-19T19:46:11.422Z,100702.81
2022-10-19T19:51:20.831Z,100707.41
2022-10-19T19:56:29.162Z,100724.77
2022-10-19T20:01:38.270Z,100729.02
2022-10-19T20:06:45.786Z,100738.64
2022-10-19T20:11:52.804Z,100740.42
2022-10-19T20:17:00.086Z,100743.63
2022-10-19T20:22:07.855Z,100747.67
2022-10-19T20:27:14.970Z,100761.36
2022-10-19T20:32:21.960Z,100770.14
2022-10-19T20:37:30.569Z,100770.66
2022-10-19T20:42:38.176Z,100769.14
2022-10-19T20:47:45.515Z,100774.38
2022-10-19T20:52:52.379Z,100774.58
2022-10-19T20:57:59.492Z,100782.98
2022-10-19T21:03:06.303Z,100784.58
2022-10-19T21:08:16.043Z,100789.10
2022-10-19T21:13:23.099Z,100792.24
2022-10-19T21:18:30.067Z,100786.68
2022-10-19T21:23:37.157Z,100794.05
2022-10-19T21:28:47.144Z,100794.45
2022-10-19T21:33:55.279Z,100801.63
2022-10-19T21:39:02.345Z,100797.48
2022-10-19T21:44:09.631Z,100802.58
2022-10-19T21:49:17.082Z,100804.70
2022-10-19T21:54:26.540Z,100808.56
2022-10-19T21:59:34.061Z,100803.86
2022-10-19T22:04:40.820Z,100808.23
2022-10-19T22:09:48.106Z,100807.36
2022-10-19T22:14:55.137Z,100805.96
2022-10-19T22:20:02.185Z,100802.84
2022-10-19T22:25:09.956Z,100805.81
2022-10-19T22:30:17.299Z,100812.98
2022-10-19T22:35:24.268Z,100820.48
2022-10-19T22:40:31.203Z,100818.89
2022-10-19T22:45:38.307Z,100816.27
2022-10-19T22:50:45.304Z,100803.39
2022-10-19T22:55:52.711Z,100819.40
2022-10-19T23:01:06.187Z,100818.34
2022-10-19T23:06:15.718Z,100822.57
2022-10-19T23:11:22.770Z,100821.00
2022-10-19T23:16:31.178Z,100828.19
2022-10-19T23:21:38.127Z,100839.77
2022-10-19T23:26:45.058Z,100831.27
2022-10-19T23:31:52.340Z,100842.40
2022-10-19T23:36:59.597Z,100843.98
2022-10-19T23:42:06.940Z,100850.11
2022-10-19T23:47:14.017Z,100850.80
2022-10-19T23:52:20.847Z,100851.33
2022-10-19T23:57:27.764Z,100852.91
